Time;durP1;ratioP1;P1;durP2;ratioP2;P2;SDS_P1;SDS_P2;PMS_P1;PMS_P2;Temp;Humidity;BMP_temperature;BMP_pressure;BME280_temperature;BME280_humidity;BME280_pressure;Samples;Min_cycle;Max_cycle;Signal;HPM_P1;HPM_P2
2022/10/02 00:01:00;;;;;;;4.33;2.77;;;;;;;19.82;83.69;94388.53;4991684;28;20244;-77
2022/10/02 00:03:31;;;;;;;3.47;2.27;;;;;;;19.78;83.71;94382.94;4990826;28;20212;-78
2022/10/02 00:06:05;;;;;;;5.23;2.30;;;;;;;19.80;83.62;94382.72;4971992;28;20192;-78
2022/10/02 00:08:35;;;;;;;4.23;2.70;;;;;;;19.79;83.81;94388.94;4972313;28;20194;-79
2022/10/02 00:11:09;;;;;;;2.90;1.97;;;;;;;19.80;83.97;94385.31;4971797;28;20205;-77
2022/10/02 00:13:41;;;;;;;3.13;2.17;;;;;;;19.80;83.90;94390.50;4990734;28;20215;-79
2022/10/02 00:16:19;;;;;;;2.53;2.10;;;;;;;19.78;83.80;94380.34;4989697;28;20185;-79
2022/10/02 00:18:48;;;;;;;3.63;2.10;;;;;;;19.74;83.76;94379.16;4991637;28;20185;-78
2022/10/02 00:21:34;;;;;;;2.80;2.07;;;;;;;19.64;83.90;94364.97;4991148;28;20243;-77
2022/10/02 00:24:03;;;;;;;3.30;2.10;;;;;;;19.77;83.94;94396.09;4975214;28;20608;-79
2022/10/02 00:26:38;;;;;;;6.47;2.20;;;;;;;19.75;83.90;94400.69;4977374;28;20182;-78
2022/10/02 00:29:23;;;;;;;3.10;2.00;;;;;;;19.76;83.98;94399.69;4984807;28;20243;-79
2022/10/02 00:32:01;;;;;;;3.40;2.10;;;;;;;19.74;83.91;94399.13;4972546;28;20617;-79
2022/10/02 00:34:40;;;;;;;5.40;2.10;;;;;;;19.72;84.13;94403.69;4972193;28;20229;-79
2022/10/02 00:37:19;;;;;;;2.67;1.90;;;;;;;19.68;84.35;94390.31;4972690;28;20207;-80
2022/10/02 00:39:59;;;;;;;3.73;2.50;;;;;;;19.70;84.19;94400.50;4973003;28;20217;-81
2022/10/02 00:43:05;;;;;;;4.97;2.33;;;;;;;19.71;84.28;94404.69;4991073;28;20192;-78
2022/10/02 00:46:04;;;;;;;3.43;2.20;;;;;;;19.70;84.16;94418.69;4991118;28;20189;-78
2022/10/02 00:48:48;;;;;;;2.20;2.00;;;;;;;19.68;84.18;94412.88;4989376;28;20196;-78
2022/10/02 00:51:35;;;;;;;4.13;2.33;;;;;;;19.68;84.04;94421.44;4990574;28;20204;-78
2022/10/02 00:54:20;;;;;;;3.67;2.53;;;;;;;19.67;84.05;94437.22;4990764;28;20612;-78
2022/10/02 00:56:59;;;;;;;4.30;2.20;;;;;;;19.66;83.91;94427.84;4990207;28;20192;-76
2022/10/02 00:59:43;;;;;;;3.07;1.97;;;;;;;19.65;83.88;94421.06;4972745;28;20569;-76
2022/10/02 01:02:14;;;;;;;3.10;2.20;;;;;;;19.63;83.89;94423.84;4971264;28;20248;-78
2022/10/02 01:04:41;;;;;;;2.03;1.90;;;;;;;19.63;83.74;94426.44;4971335;28;20208;-78
2022/10/02 01:07:11;;;;;;;3.83;2.43;;;;;;;19.61;83.80;94433.66;4971414;28;20204;-79
2022/10/02 01:09:39;;;;;;;1.93;1.83;;;;;;;19.58;83.68;94439.19;4983702;28;20197;-77
2022/10/02 01:12:07;;;;;;;2.07;1.93;;;;;;;19.61;83.74;94443.22;4990901;28;20271;-77
2022/10/02 01:14:37;;;;;;;2.27;2.07;;;;;;;19.58;83.39;94452.16;4990356;28;20602;-77
2022/10/02 01:17:07;;;;;;;3.77;2.23;;;;;;;19.58;83.47;94448.78;4990414;28;20200;-76
2022/10/02 01:19:38;;;;;;;3.00;2.13;;;;;;;19.55;83.32;94450.75;4987637;28;20193;-78
2022/10/02 01:22:11;;;;;;;3.97;2.10;;;;;;;19.55;83.29;94452.56;4990316;28;20196;-77
2022/10/02 01:24:47;;;;;;;3.30;2.03;;;;;;;19.52;83.25;94458.16;4973317;28;20240;-77
2022/10/02 01:27:14;;;;;;;2.57;2.23;;;;;;;19.50;83.13;94457.53;4971320;28;20615;-79
2022/10/02 01:29:42;;;;;;;2.00;1.90;;;;;;;19.49;83.03;94458.53;4971651;28;20198;-76
2022/10/02 01:32:10;;;;;;;2.20;2.00;;;;;;;19.47;83.11;94457.94;4971236;28;20562;-77
2022/10/02 01:34:38;;;;;;;1.93;1.83;;;;;;;19.43;82.80;94467.94;4972123;28;20244;-79
2022/10/02 01:37:05;;;;;;;3.77;2.23;;;;;;;19.31;82.81;94459.13;4974630;28;20201;-76
2022/10/02 01:39:33;;;;;;;1.87;1.77;;;;;;;19.38;82.73;94472.88;4973001;28;20225;-77
2022/10/02 01:42:01;;;;;;;3.77;1.90;;;;;;;19.35;82.63;94478.47;4972914;28;20204;-78
2022/10/02 01:44:28;;;;;;;1.90;1.80;;;;;;;19.32;82.62;94486.66;4974943;28;20700;-77
2022/10/02 01:47:04;;;;;;;2.23;1.90;;;;;;;19.26;82.69;94479.66;4974223;28;20595;-79
2022/10/02 01:49:51;;;;;;;2.30;1.97;;;;;;;19.21;82.59;94472.47;4974750;28;20205;-79
2022/10/02 01:52:37;;;;;;;1.83;1.70;;;;;;;19.24;82.58;94479.03;4973240;28;20189;-78
2022/10/02 01:55:25;;;;;;;6.73;2.10;;;;;;;19.12;82.30;94476.22;4974685;28;20189;-79
2022/10/02 01:58:15;;;;;;;2.63;1.93;;;;;;;19.09;82.58;94474.03;4974525;28;20691;-76
2022/10/02 02:00:52;;;;;;;2.03;1.83;;;;;;;19.11;82.43;94484.19;4974893;28;20221;-77
2022/10/02 02:03:29;;;;;;;2.00;1.77;;;;;;;19.03;82.29;94477.38;4972605;28;20206;-77
2022/10/02 02:06:03;;;;;;;2.37;1.70;;;;;;;19.04;82.25;94486.75;4974024;28;20206;-76
2022/10/02 02:08:34;;;;;;;2.00;1.90;;;;;;;19.00;82.18;94494.16;4974037;28;20193;-76
2022/10/02 02:11:10;;;;;;;2.37;1.87;;;;;;;18.97;82.09;94498.91;4973675;28;20197;-77
2022/10/02 02:13:45;;;;;;;2.53;2.17;;;;;;;18.83;82.03;94479.94;4965395;28;20601;-81
2022/10/02 02:16:23;;;;;;;1.77;1.67;;;;;;;18.90;82.07;94500.66;4955111;29;20645;-80
2022/10/02 02:18:59;;;;;;;2.23;2.10;;;;;;;18.86;82.08;94508.03;4954876;29;20193;-79
2022/10/02 02:21:31;;;;;;;2.30;2.10;;;;;;;18.82;81.67;94512.00;4955711;28;20182;-77
2022/10/02 02:24:02;;;;;;;2.70;1.70;;;;;;;18.77;81.83;94517.75;4958688;28;20201;-78
2022/10/02 02:26:31;;;;;;;1.93;1.83;;;;;;;18.75;81.67;94522.34;4987860;28;20186;-76
2022/10/02 02:29:02;;;;;;;2.03;1.93;;;;;;;18.73;81.68;94520.91;4978794;28;20193;-79
2022/10/02 02:31:35;;;;;;;1.93;1.83;;;;;;;18.58;81.60;94497.72;4974283;28;20193;-79
2022/10/02 02:34:07;;;;;;;1.90;1.80;;;;;;;18.72;81.43;94533.06;4973580;28;20217;-79
2022/10/02 02:36:38;;;;;;;1.90;1.73;;;;;;;18.70;81.60;94534.28;4954805;29;20230;-78
2022/10/02 02:39:09;;;;;;;2.57;1.73;;;;;;;18.70;81.45;94535.06;4969729;28;20237;-79
2022/10/02 02:41:41;;;;;;;2.10;1.70;;;;;;;18.67;81.23;94537.22;4974184;28;20197;-77
2022/10/02 02:44:17;;;;;;;2.17;1.60;;;;;;;18.67;81.19;94540.59;4993839;28;20200;-79
2022/10/02 02:47:05;;;;;;;1.77;1.67;;;;;;;18.66;81.21;94543.38;4992198;28;20668;-78
2022/10/02 02:49:40;;;;;;;2.13;1.50;;;;;;;18.63;81.23;94543.75;4986302;28;20201;-78
2022/10/02 02:52:12;;;;;;;3.83;1.90;;;;;;;18.60;80.92;94554.50;4973496;28;20189;-79
2022/10/02 02:54:43;;;;;;;1.57;1.47;;;;;;;18.60;81.05;94559.69;4974066;28;20220;-78
2022/10/02 02:57:13;;;;;;;1.80;1.70;;;;;;;18.60;80.99;94564.84;4974062;28;20649;-79
2022/10/02 02:59:46;;;;;;;1.60;1.50;;;;;;;18.57;81.02;94571.22;4973671;28;20210;-78
2022/10/02 03:02:13;;;;;;;1.47;1.43;;;;;;;18.58;80.82;94577.22;4973279;28;20197;-78
2022/10/02 03:04:40;;;;;;;1.87;1.77;;;;;;;18.56;80.92;94582.56;4973495;28;20220;-79
2022/10/02 03:07:14;;;;;;;2.17;1.70;;;;;;;18.54;80.87;94592.31;4973356;28;20198;-78
2022/10/02 03:09:46;;;;;;;1.50;1.40;;;;;;;18.55;80.64;94586.16;4991504;28;20188;-78
2022/10/02 03:12:20;;;;;;;1.77;1.60;;;;;;;18.54;80.75;94587.94;4993795;28;20278;-79
2022/10/02 03:15:03;;;;;;;1.90;1.60;;;;;;;18.51;80.66;94588.31;4993690;28;20216;-77
2022/10/02 03:17:44;;;;;;;1.70;1.60;;;;;;;18.47;80.69;94591.47;4993633;28;20193;-77
2022/10/02 03:20:16;;;;;;;1.30;1.30;;;;;;;18.52;80.67;94605.47;4977663;28;20204;-78
2022/10/02 03:22:56;;;;;;;2.60;1.80;;;;;;;18.51;80.59;94611.63;4975350;28;20584;-78
2022/10/02 03:25:30;;;;;;;1.70;1.60;;;;;;;18.50;80.65;94611.81;4973112;28;20194;-80
2022/10/02 03:28:04;;;;;;;1.67;1.60;;;;;;;18.46;80.49;94623.53;4972751;28;20832;-78
2022/10/02 03:30:35;;;;;;;3.93;1.80;;;;;;;18.46;80.58;94628.72;4973960;28;20184;-78
2022/10/02 03:33:04;;;;;;;2.30;1.60;;;;;;;18.48;80.50;94631.91;4973489;28;20197;-78
2022/10/02 03:35:32;;;;;;;2.40;2.00;;;;;;;18.44;80.35;94618.56;4992326;28;20236;-78
2022/10/02 03:38:04;;;;;;;1.40;1.40;;;;;;;18.46;80.31;94621.75;4992016;28;20295;-78
2022/10/02 03:40:31;;;;;;;1.90;1.73;;;;;;;18.45;80.39;94632.31;4990118;28;20192;-78
2022/10/02 03:42:58;;;;;;;3.47;2.10;;;;;;;18.36;80.26;94615.31;4991745;28;20538;-78
2022/10/02 03:45:25;;;;;;;1.80;1.70;;;;;;;18.43;80.16;94629.88;4991711;28;20208;-78
2022/10/02 03:47:53;;;;;;;2.03;1.93;;;;;;;18.44;80.21;94639.28;4990036;28;20197;-78
2022/10/02 03:50:20;;;;;;;2.10;1.90;;;;;;;18.42;79.90;94633.47;4972280;28;20189;-78
2022/10/02 03:52:50;;;;;;;3.03;1.97;;;;;;;18.40;80.14;94630.28;4973280;28;20190;-78
2022/10/02 03:55:31;;;;;;;4.23;2.10;;;;;;;18.42;80.13;94636.06;4971950;28;20217;-78
2022/10/02 03:58:01;;;;;;;2.40;1.70;;;;;;;18.39;80.06;94625.25;4971251;28;20657;-78
2022/10/02 04:00:35;;;;;;;2.70;1.97;;;;;;;18.38;80.17;94640.00;4971865;28;20342;-78
2022/10/02 04:03:10;;;;;;;2.20;2.00;;;;;;;18.33;79.91;94644.16;4973276;28;20197;-78
2022/10/02 04:05:44;;;;;;;3.10;1.90;;;;;;;18.36;80.04;94654.13;4972110;28;20193;-78
2022/10/02 04:08:16;;;;;;;2.30;2.10;;;;;;;18.37;79.98;94666.09;4972002;28;20216;-77
2022/10/02 04:10:49;;;;;;;1.80;1.70;;;;;;;18.35;79.99;94662.88;4972148;28;20190;-78
2022/10/02 04:13:23;;;;;;;3.17;1.80;;;;;;;18.32;79.91;94661.47;4972972;28;20193;-78
2022/10/02 04:16:01;;;;;;;1.80;1.70;;;;;;;18.33;79.83;94659.69;4971865;28;20577;-78
2022/10/02 04:18:33;;;;;;;3.47;2.00;;;;;;;18.36;79.87;94680.81;4972041;28;20221;-77
2022/10/02 04:21:05;;;;;;;2.40;2.20;;;;;;;18.36;79.63;94682.63;4971697;28;20669;-78
2022/10/02 04:23:37;;;;;;;1.80;1.70;;;;;;;18.37;79.64;94691.97;4975673;28;20189;-78
2022/10/02 04:26:13;;;;;;;2.20;2.10;;;;;;;18.38;79.59;94696.16;4991502;28;20193;-78
2022/10/02 04:28:44;;;;;;;2.10;2.00;;;;;;;18.38;79.88;94689.19;4991422;28;20235;-77
2022/10/02 04:31:12;;;;;;;2.63;2.43;;;;;;;18.39;79.54;94688.19;4990763;28;20197;-78
2022/10/02 04:33:41;;;;;;;2.40;2.20;;;;;;;18.40;79.42;94682.06;4989528;28;20647;-78
2022/10/02 04:36:20;;;;;;;1.93;1.83;;;;;;;18.43;79.58;94688.63;4983315;28;20194;-76
2022/10/02 04:39:10;;;;;;;2.47;2.27;;;;;;;18.44;79.39;94695.44;4971075;28;20221;-77
2022/10/02 04:41:53;;;;;;;2.10;2.00;;;;;;;18.45;78.82;94694.44;4971416;28;20213;-78
2022/10/02 04:44:35;;;;;;;2.30;2.20;;;;;;;18.50;79.02;94695.47;4971369;28;20193;-77
2022/10/02 04:47:20;;;;;;;2.40;2.20;;;;;;;18.55;78.88;94706.09;4972794;28;20692;-78
2022/10/02 04:50:03;;;;;;;2.10;2.00;;;;;;;18.60;78.65;94710.69;4981172;28;20200;-77
2022/10/02 04:52:51;;;;;;;2.17;2.07;;;;;;;18.64;78.37;94718.91;4972507;28;20208;-77
2022/10/02 04:55:34;;;;;;;3.60;2.10;;;;;;;18.71;78.11;94730.16;4973376;28;20236;-77
2022/10/02 04:58:23;;;;;;;3.23;2.10;;;;;;;18.84;77.58;94717.31;4978823;28;20197;-77
2022/10/02 05:01:00;;;;;;;3.30;2.43;;;;;;;18.96;77.21;94731.38;4970757;28;20665;-78
2022/10/02 05:03:40;;;;;;;2.07;1.97;;;;;;;19.04;76.96;94727.81;4971527;28;20197;-77
2022/10/02 05:06:27;;;;;;;2.10;2.00;;;;;;;19.10;76.63;94740.03;4972166;28;20196;-77
2022/10/02 05:09:03;;;;;;;2.23;1.83;;;;;;;19.23;76.39;94745.31;4970594;28;20194;-79
2022/10/02 05:11:53;;;;;;;1.97;1.87;;;;;;;19.53;76.77;94734.72;4971565;28;20193;-79
2022/10/02 05:14:49;;;;;;;2.20;2.10;;;;;;;19.91;77.25;94750.69;4974844;28;20232;-80
2022/10/02 05:17:32;;;;;;;2.40;2.00;;;;;;;20.37;77.10;94755.22;4988568;28;20188;-78
2022/10/02 05:20:10;;;;;;;2.47;1.80;;;;;;;20.78;76.46;94749.13;4990686;28;20204;-77
2022/10/02 05:22:54;;;;;;;2.20;2.10;;;;;;;21.37;76.18;94758.69;4990626;28;20196;-81
2022/10/02 05:25:36;;;;;;;3.15;1.77;;;;;;;22.04;75.16;94759.31;4990621;28;20571;-79
2022/10/02 05:28:42;;;;;;;4.72;1.90;;;;;;;22.60;73.10;94752.66;4988506;28;20639;-80
2022/10/02 05:31:20;;;;;;;3.75;2.15;;;;;;;23.04;72.07;94760.38;4899976;29;20200;-79
2022/10/02 05:34:04;;;;;;;1.80;1.70;;;;;;;23.37;70.62;94755.91;4892774;29;20203;-79
2022/10/02 05:36:46;;;;;;;1.80;1.70;;;;;;;23.62;70.05;94759.25;4896085;29;20572;-78
2022/10/02 05:39:21;;;;;;;1.90;1.80;;;;;;;23.95;68.47;94740.63;4892985;29;20223;-80
2022/10/02 05:41:56;;;;;;;3.60;1.60;;;;;;;24.31;67.56;94749.44;4892452;29;20196;-80
2022/10/02 05:44:34;;;;;;;4.28;1.70;;;;;;;24.47;67.62;94751.44;4892620;29;20199;-79
2022/10/02 05:47:16;;;;;;;2.22;1.83;;;;;;;24.52;67.63;94772.50;4907700;29;20282;-81
2022/10/02 05:50:04;;;;;;;1.83;1.70;;;;;;;24.23;66.57;94740.09;4910513;29;20192;-81
2022/10/02 05:52:37;;;;;;;1.80;1.70;;;;;;;24.43;66.28;94781.66;4911873;29;20251;-83
2022/10/02 05:55:15;;;;;;;1.85;1.75;;;;;;;24.37;65.09;94785.16;4911150;29;20588;-79
2022/10/02 05:57:46;;;;;;;3.08;1.83;;;;;;;24.25;64.92;94784.28;4910885;29;20695;-76
2022/10/02 06:00:22;;;;;;;1.70;1.60;;;;;;;24.21;64.45;94789.16;4911362;29;20203;-79
2022/10/02 06:02:56;;;;;;;1.90;1.80;;;;;;;24.10;63.89;94792.53;4910945;29;20211;-79
2022/10/02 06:05:30;;;;;;;1.95;1.80;;;;;;;24.02;63.60;94787.59;4891382;29;20694;-80
2022/10/02 06:08:03;;;;;;;1.90;1.80;;;;;;;23.92;63.25;94790.72;4953933;28;20276;-78
2022/10/02 06:10:38;;;;;;;2.10;2.00;;;;;;;23.80;63.01;94800.28;4983407;28;20182;-78
2022/10/02 06:13:12;;;;;;;3.03;1.80;;;;;;;23.68;63.42;94786.34;4990616;28;20193;-85
2022/10/02 06:15:46;;;;;;;1.90;1.80;;;;;;;23.58;63.04;94797.25;4990974;28;20205;-79
2022/10/02 06:18:18;;;;;;;2.00;1.83;;;;;;;23.51;63.30;94806.97;4991148;28;20200;-81
2022/10/02 06:20:51;;;;;;;1.80;1.70;;;;;;;23.44;62.71;94804.38;4991111;28;20204;-82
2022/10/02 06:23:22;;;;;;;3.58;2.10;;;;;;;23.53;63.05;94810.13;4992763;28;20193;-84
2022/10/02 06:25:54;;;;;;;1.77;1.67;;;;;;;23.47;62.82;94809.19;4974948;28;20194;-78
2022/10/02 06:28:28;;;;;;;1.60;1.50;;;;;;;23.50;62.92;94834.09;4991635;28;20265;-81
2022/10/02 06:31:00;;;;;;;2.10;2.00;;;;;;;23.41;62.49;94827.53;4987467;28;20193;-77
2022/10/02 06:33:30;;;;;;;2.00;1.90;;;;;;;23.63;62.77;94835.78;4985604;28;20194;-78
2022/10/02 06:36:29;;;;;;;1.83;1.73;;;;;;;24.03;62.64;94839.63;4989723;28;20209;-78
2022/10/02 06:39:26;;;;;;;6.07;2.05;;;;;;;24.56;62.56;94840.03;4992204;28;20220;-81
2022/10/02 06:42:05;;;;;;;2.92;1.92;;;;;;;25.20;62.53;94849.03;4913174;29;20206;-78
2022/10/02 06:44:46;;;;;;;5.72;2.22;;;;;;;25.67;62.39;94841.25;4900417;29;20207;-80
2022/10/02 06:47:34;;;;;;;11.57;2.75;;;;;;;26.21;62.80;94847.94;4929151;29;20203;-84
2022/10/02 06:50:22;;;;;;;12.48;2.40;;;;;;;26.57;61.68;94830.31;4907390;29;20224;-84
2022/10/02 06:53:00;;;;;;;8.90;2.53;;;;;;;27.02;60.93;94855.78;4897410;29;20668;-87
2022/10/02 06:55:40;;;;;;;9.73;2.42;;;;;;;27.29;59.30;94835.00;4897644;29;20235;-80
2022/10/02 06:58:31;;;;;;;7.20;1.88;;;;;;;27.64;57.85;94853.16;4915243;29;20206;-81
2022/10/02 07:01:06;;;;;;;4.60;1.98;;;;;;;27.98;56.94;94872.34;4916011;29;20227;-86
2022/10/02 07:04:15;;;;;;;11.95;2.28;;;;;;;28.07;55.70;94864.84;4915165;29;20199;-85
2022/10/02 07:06:54;;;;;;;16.85;2.35;;;;;;;28.17;55.58;94893.09;4896106;29;20204;-81
2022/10/02 07:10:01;;;;;;;8.80;2.17;;;;;;;28.35;55.08;94884.13;4896127;29;20196;-76
2022/10/02 07:12:58;;;;;;;9.65;2.28;;;;;;;28.62;53.84;94892.91;4801443;29;20282;-79
2022/10/02 07:15:56;;;;;;;22.10;3.95;;;;;;;28.90;53.46;94899.00;4804268;29;20239;-77
2022/10/02 07:18:57;;;;;;;9.27;4.47;;;;;;;29.12;51.84;94901.63;4829205;29;20197;-82
2022/10/02 07:21:33;;;;;;;6.32;3.85;;;;;;;29.28;51.08;94915.75;4875190;29;20205;-79
2022/10/02 07:24:13;;;;;;;7.78;4.10;;;;;;;29.41;50.63;94913.50;4875265;29;20208;-77
2022/10/02 07:26:47;;;;;;;7.80;4.10;;;;;;;29.53;49.76;94915.19;4875417;29;20193;-75
2022/10/02 07:29:25;;;;;;;5.03;3.58;;;;;;;29.63;49.27;94921.38;4875450;29;20204;-74
2022/10/02 07:32:09;;;;;;;4.55;3.92;;;;;;;29.70;48.98;94915.88;4874785;29;20213;-74
2022/10/02 07:34:44;;;;;;;5.60;3.53;;;;;;;29.76;48.72;94909.63;4875177;29;20200;-75
2022/10/02 07:37:23;;;;;;;4.25;3.22;;;;;;;29.81;47.94;94906.22;4874831;29;20220;-78
2022/10/02 07:40:09;;;;;;;14.77;3.75;;;;;;;29.85;47.52;94908.09;4875582;29;20200;-78
2022/10/02 07:42:54;;;;;;;3.20;2.67;;;;;;;29.90;46.79;94902.06;4876917;29;20211;-76
2022/10/02 07:45:34;;;;;;;2.83;2.58;;;;;;;29.91;46.16;94907.06;4879560;29;20190;-81
2022/10/02 07:48:16;;;;;;;5.22;2.28;;;;;;;29.90;45.86;94904.69;4879408;29;20194;-74
2022/10/02 07:50:57;;;;;;;9.57;2.30;;;;;;;29.92;46.01;94913.13;4974317;28;20653;-73
2022/10/02 07:53:37;;;;;;;4.95;2.10;;;;;;;29.81;45.60;94903.56;4976896;28;20205;-78
2022/10/02 07:56:07;;;;;;;2.53;1.70;;;;;;;29.88;45.04;94925.22;4971240;28;20256;-78
2022/10/02 07:58:39;;;;;;;2.58;2.30;;;;;;;29.82;44.99;94929.69;4970557;28;20284;-83
2022/10/02 08:01:12;;;;;;;2.50;1.88;;;;;;;29.79;44.51;94932.81;4970770;28;20205;-83
2022/10/02 08:03:45;;;;;;;6.18;1.98;;;;;;;29.84;44.75;94942.63;4974804;28;20349;-85
2022/10/02 08:06:13;;;;;;;1.52;1.40;;;;;;;30.04;44.00;94941.97;4973624;28;20201;-80
2022/10/02 08:08:46;;;;;;;2.70;1.55;;;;;;;30.22;43.94;94945.03;4973349;28;20668;-82
2022/10/02 08:11:17;;;;;;;2.47;1.70;;;;;;;30.37;44.46;94938.25;4972269;28;20216;-83
2022/10/02 08:13:47;;;;;;;2.38;1.77;;;;;;;30.42;44.51;94925.88;4971836;28;20190;-84
2022/10/02 08:16:18;;;;;;;3.15;1.70;;;;;;;30.68;44.58;94944.47;4971775;28;20709;-77
2022/10/02 08:18:54;;;;;;;4.88;1.63;;;;;;;30.84;44.22;94951.44;4969389;28;20642;-77
2022/10/02 08:21:24;;;;;;;23.75;2.25;;;;;;;30.92;44.26;94955.44;4969163;28;20201;-78
2022/10/02 08:23:57;;;;;;;8.07;1.77;;;;;;;30.96;44.36;94941.47;4970246;28;20267;-81
2022/10/02 08:26:29;;;;;;;1.65;1.40;;;;;;;31.04;44.20;94950.72;4969813;28;20182;-76
2022/10/02 08:29:04;;;;;;;4.82;1.60;;;;;;;30.93;43.94;94906.84;4969974;28;20276;-82
2022/10/02 08:31:31;;;;;;;2.42;1.77;;;;;;;31.19;43.78;94944.69;4968915;28;20197;-79
2022/10/02 08:34:06;;;;;;;2.63;1.92;;;;;;;31.22;43.48;94939.69;4972834;28;20208;-81
2022/10/02 08:36:53;;;;;;;3.40;1.77;;;;;;;31.18;43.23;94916.69;4971123;28;20232;-79
2022/10/02 08:39:43;;;;;;;2.60;1.48;;;;;;;31.20;43.30;94930.41;4970587;28;20229;-77
2022/10/02 08:42:55;;;;;;;4.07;1.65;;;;;;;31.12;43.38;94923.78;4970994;28;20204;-81
2022/10/02 08:45:51;;;;;;;3.75;1.73;;;;;;;31.04;43.37;94924.28;4985857;28;20209;-79
2022/10/02 08:49:12;;;;;;;7.50;1.92;;;;;;;30.79;44.80;94914.47;4989762;28;20190;-81
2022/10/02 08:52:08;;;;;;;6.28;1.92;;;;;;;30.43;45.20;94922.19;4972549;28;20205;-78
2022/10/02 08:55:09;;;;;;;3.08;1.77;;;;;;;29.99;44.80;94911.88;4972346;28;20202;-79
2022/10/02 08:58:12;;;;;;;2.45;1.60;;;;;;;29.78;44.84;94927.81;4969139;28;20201;-79
2022/10/02 09:00:54;;;;;;;5.32;1.85;;;;;;;29.58;44.83;94923.16;4970882;28;20656;-77
2022/10/02 09:04:00;;;;;;;7.40;1.85;;;;;;;29.50;44.69;94932.31;4971496;28;20223;-77
2022/10/02 09:07:20;;;;;;;4.03;1.77;;;;;;;29.49;44.88;94922.78;4971199;28;20201;-80
2022/10/02 09:10:13;;;;;;;5.95;1.88;;;;;;;29.49;45.20;94925.41;4971827;28;20197;-79
2022/10/02 09:13:30;;;;;;;2.78;1.23;;;;;;;29.39;45.12;94912.97;4930767;29;20198;-79
2022/10/02 09:16:09;;;;;;;3.22;1.42;;;;;;;29.19;45.08;94897.78;4930864;29;20320;-81
2022/10/02 09:18:55;;;;;;;3.10;1.30;;;;;;;29.19;44.76;94918.84;4930827;29;20197;-79
2022/10/02 09:21:53;;;;;;;1.25;1.25;;;;;;;29.04;44.45;94917.88;4930798;29;20285;-78
2022/10/02 09:25:01;;;;;;;2.55;1.60;;;;;;;28.92;44.30;94913.50;4930596;29;20209;-79
2022/10/02 09:27:53;;;;;;;1.83;1.50;;;;;;;28.82;44.00;94908.13;4892759;29;20409;-81
2022/10/02 09:30:27;;;;;;;3.30;1.58;;;;;;;28.75;44.24;94918.06;4892264;29;20333;-79
2022/10/02 09:33:39;;;;;;;1.48;1.38;;;;;;;28.64;44.13;94917.16;4892732;29;20292;-79
2022/10/02 09:36:44;;;;;;;1.73;1.50;;;;;;;28.47;43.81;94908.50;4892697;29;20309;-79
2022/10/02 09:39:46;;;;;;;1.85;1.40;;;;;;;28.33;44.06;94899.38;4892673;29;20231;-78
2022/10/02 09:42:47;;;;;;;1.60;1.50;;;;;;;28.22;43.88;94909.75;4893032;29;20200;-80
2022/10/02 09:45:48;;;;;;;1.63;1.38;;;;;;;28.08;43.93;94905.88;4892971;29;20188;-79
2022/10/02 09:48:47;;;;;;;1.33;1.23;;;;;;;27.93;43.86;94906.44;4892533;29;20196;-79
2022/10/02 09:51:41;;;;;;;1.25;1.20;;;;;;;27.85;44.08;94925.25;4911905;29;20218;-80
2022/10/02 09:54:55;;;;;;;1.50;1.40;;;;;;;27.70;44.17;94920.50;4911432;29;20195;-79
2022/10/02 09:58:25;;;;;;;2.65;1.52;;;;;;;27.55;44.15;94898.44;4857247;29;20259;-81
2022/10/02 10:01:22;;;;;;;1.33;1.30;;;;;;;27.44;44.32;94905.38;4822570;29;20191;-80
2022/10/02 10:04:20;;;;;;;1.50;1.40;;;;;;;27.40;44.10;94904.25;4867494;29;20201;-82
2022/10/02 10:07:06;;;;;;;1.45;1.35;;;;;;;27.34;44.16;94911.25;4872057;29;20204;-80
2022/10/02 10:10:00;;;;;;;1.65;1.55;;;;;;;27.21;44.20;94901.06;4878328;29;20295;-80
2022/10/02 10:13:00;;;;;;;1.98;1.83;;;;;;;27.18;44.22;94897.06;4878319;29;20257;-79
2022/10/02 10:19:01;;;;;;;1.70;1.60;;;;;;;26.98;44.18;94888.78;4767996;30;20225;-79
2022/10/02 10:21:59;;;;;;;3.15;1.55;;;;;;;26.96;43.93;94904.78;4767890;30;20660;-80
2022/10/02 10:25:11;;;;;;;2.38;1.50;;;;;;;26.91;44.15;94904.69;4767045;30;20288;-79
2022/10/02 10:28:02;;;;;;;3.45;1.45;;;;;;;26.75;44.50;94900.97;4724000;30;20209;-82
2022/10/02 10:34:32;;;;;;;2.58;1.40;;;;;;;26.67;44.04;94905.78;4695260;30;20223;-79
2022/10/02 10:40:14;;;;;;;1.58;1.40;;;;;;;26.52;44.29;94893.97;4717685;30;20221;-80
2022/10/02 10:46:12;;;;;;;2.17;1.50;;;;;;;26.45;44.37;94889.88;4726680;30;20207;-79
2022/10/02 10:49:05;;;;;;;3.42;1.50;;;;;;;26.40;44.35;94881.88;4721888;30;20218;-80
2022/10/02 10:51:44;;;;;;;1.58;1.33;;;;;;;26.35;44.24;94879.97;4772387;30;20242;-81
2022/10/02 10:54:57;;;;;;;1.20;1.20;;;;;;;26.33;44.18;94883.81;4787969;29;20302;-82
2022/10/02 10:58:00;;;;;;;1.73;1.50;;;;;;;26.27;44.34;94875.84;4750677;30;20244;-80
2022/10/02 11:01:28;;;;;;;1.45;1.35;;;;;;;26.20;44.78;94875.19;4752219;30;20205;-81
2022/10/02 11:04:25;;;;;;;2.80;1.40;;;;;;;26.21;44.50;94891.72;4783764;30;20203;-79
2022/10/02 11:07:20;;;;;;;1.60;1.50;;;;;;;26.17;44.35;94886.16;4738526;30;20442;-81
2022/10/02 11:13:53;;;;;;;1.13;1.13;;;;;;;26.10;44.70;94868.94;4785229;29;20717;-80
2022/10/02 11:16:46;;;;;;;2.08;1.20;;;;;;;26.05;44.75;94874.06;4821809;29;20234;-80
2022/10/02 11:19:56;;;;;;;1.30;1.30;;;;;;;25.88;44.45;94847.75;4821181;29;20343;-80
2022/10/02 11:22:56;;;;;;;1.25;1.23;;;;;;;25.95;44.39;94869.38;4785400;30;20685;-80
2022/10/02 11:26:02;;;;;;;1.30;1.30;;;;;;;25.80;44.36;94856.75;4784372;30;20216;-81
2022/10/02 11:28:48;;;;;;;1.55;1.45;;;;;;;25.82;44.67;94874.84;4784146;30;20208;-81
2022/10/02 11:31:29;;;;;;;1.63;1.52;;;;;;;25.77;44.58;94860.63;4784418;29;20204;-78
2022/10/02 11:34:34;;;;;;;3.25;1.25;;;;;;;25.77;44.50;94865.06;4827390;29;20198;-80
2022/10/02 11:37:14;;;;;;;3.40;1.63;;;;;;;25.72;44.58;94878.03;4839222;29;20257;-78
2022/10/02 11:40:11;;;;;;;1.50;1.40;;;;;;;25.65;44.48;94864.25;4820618;29;20586;-78
2022/10/02 11:42:59;;;;;;;1.65;1.55;;;;;;;25.43;44.44;94848.28;4750054;30;20215;-79
2022/10/02 11:45:54;;;;;;;1.50;1.40;;;;;;;25.60;44.77;94888.47;4766691;30;20570;-80
2022/10/02 11:48:55;;;;;;;1.45;1.30;;;;;;;25.55;44.57;94891.00;4766843;30;20212;-80
2022/10/02 11:51:51;;;;;;;7.03;1.52;;;;;;;25.50;45.06;94894.28;4797542;29;20287;-78
2022/10/02 11:54:47;;;;;;;1.30;1.30;;;;;;;25.44;45.35;94891.78;4801297;29;20624;-80
2022/10/02 11:57:33;;;;;;;1.80;1.70;;;;;;;25.39;45.52;94899.50;4803131;29;20712;-78
2022/10/02 12:00:46;;;;;;;1.65;1.55;;;;;;;25.25;45.44;94885.81;4853421;29;20260;-82
2022/10/02 12:03:21;;;;;;;1.92;1.73;;;;;;;25.33;45.28;94901.19;4878670;29;20280;-78
2022/10/02 12:05:58;;;;;;;1.48;1.38;;;;;;;25.26;45.60;94900.53;4876119;29;20196;-79
2022/10/02 12:08:43;;;;;;;1.48;1.20;;;;;;;25.15;45.64;94896.03;4876905;29;20192;-78
2022/10/02 12:11:18;;;;;;;3.65;1.40;;;;;;;25.12;45.64;94888.63;4877072;29;20715;-79
2022/10/02 12:14:08;;;;;;;1.75;1.60;;;;;;;25.14;45.56;94894.44;4875607;29;20205;-78
2022/10/02 12:16:55;;;;;;;1.20;1.20;;;;;;;25.03;45.56;94885.50;4874838;29;20238;-80
2022/10/02 12:19:38;;;;;;;2.67;1.33;;;;;;;24.85;45.43;94867.22;4898114;29;20658;-79
2022/10/02 12:28:13;;;;;;;1.52;1.40;;;;;;;24.94;45.67;94898.09;4952585;29;20217;-79
2022/10/02 12:30:53;;;;;;;4.18;1.30;;;;;;;24.91;45.76;94892.50;4952344;29;20185;-79
2022/10/02 12:33:33;;;;;;;1.88;1.75;;;;;;;24.86;45.80;94879.28;4952940;28;20205;-80
2022/10/02 12:36:33;;;;;;;1.58;1.50;;;;;;;24.74;45.55;94872.19;4952424;29;20196;-80
2022/10/02 12:39:20;;;;;;;1.75;1.40;;;;;;;24.76;46.00;94878.00;4926109;29;20245;-78
2022/10/02 12:42:26;;;;;;;1.80;1.70;;;;;;;24.72;45.56;94876.84;4931114;29;20214;-78
2022/10/02 12:45:21;;;;;;;1.63;1.52;;;;;;;24.68;45.87;94874.91;4933050;29;20202;-78
2022/10/02 12:48:18;;;;;;;1.75;1.65;;;;;;;24.58;46.18;94867.56;4931229;29;20713;-78
2022/10/02 12:51:17;;;;;;;2.20;1.60;;;;;;;24.55;45.92;94878.47;4930999;29;20206;-78
2022/10/02 12:54:08;;;;;;;1.58;1.50;;;;;;;24.55;46.03;94890.75;4930809;29;20639;-79
2022/10/02 12:57:50;;;;;;;1.60;1.50;;;;;;;24.50;46.26;94886.19;4931111;29;20234;-79
2022/10/02 13:00:04;;;;;;;2.10;1.60;;;;;;;24.44;46.25;94889.69;4930784;29;20203;-80
2022/10/02 13:03:12;;;;;;;1.67;1.58;;;;;;;24.28;46.17;94888.41;4930360;29;20199;-78
2022/10/02 13:06:19;;;;;;;1.80;1.70;;;;;;;24.30;46.14;94891.59;4930505;29;20199;-80
2022/10/02 13:09:12;;;;;;;1.60;1.50;;;;;;;24.17;46.10;94878.66;4930905;29;20199;-79